Time,TemperatureF,DewpointF,PressureIn,WindDirection,WindDirectionDegrees,WindSpeedMPH,WindSpeedGustMPH,Humidity,HourlyPrecipIn,Conditions,Clouds,dailyrainin,SoftwareType,DateUTC
2013-10-08 00:05:00,66.3,44.9,30.06,SE,131,1.0,2.0,46,0.00,,,0.00,Wunderground v.1.15,2013-10-08 05:05:00,
2013-10-08 00:10:00,66.1,46.4,30.06,SE,131,0.0,1.0,49,0.00,,,0.00,Wunderground v.1.15,2013-10-08 05:10:00,
2013-10-08 00:15:00,65.6,45.4,30.06,SE,131,0.0,1.0,48,0.00,,,0.00,Wunderground v.1.15,2013-10-08 05:15:00,
2013-10-08 00:25:00,65.0,44.3,30.06,SE,131,1.0,2.0,47,0.00,,,0.00,Wunderground v.1.15,2013-10-08 05:25:00,
2013-10-08 00:30:00,65.1,44.4,30.06,SE,131,1.0,1.0,47,0.00,,,0.00,Wunderground v.1.15,2013-10-08 05:30:00,
2013-10-08 00:40:00,65.1,44.9,30.06,SE,131,0.0,1.0,48,0.00,,,0.00,Wunderground v.1.15,2013-10-08 05:40:00,
2013-10-08 00:45:00,64.8,44.6,30.05,SSE,155,1.0,1.0,48,0.00,,,0.00,Wunderground v.1.15,2013-10-08 05:45:00,
2013-10-08 00:50:00,64.8,44.6,30.05,SE,136,1.0,2.0,48,0.00,,,0.00,Wunderground v.1.15,2013-10-08 05:50:00,
2013-10-08 01:00:00,64.9,44.7,30.05,SSE,149,1.0,1.0,48,0.00,,,0.00,Wunderground v.1.15,2013-10-08 06:00:00,
2013-10-08 01:05:00,64.7,45.1,30.05,SSE,149,1.0,1.0,49,0.00,,,0.00,Wunderground v.1.15,2013-10-08 06:05:00,
2013-10-08 01:15:00,64.5,45.4,30.05,SSE,149,0.0,1.0,50,0.00,,,0.00,Wunderground v.1.15,2013-10-08 06:15:00,
2013-10-08 01:25:00,64.0,45.0,30.05,SSE,149,0.0,0.0,50,0.00,,,0.00,Wunderground v.1.15,2013-10-08 06:25:00,
2013-10-08 01:30:00,63.7,44.7,30.05,SSE,149,0.0,0.0,50,0.00,,,0.00,Wunderground v.1.15,2013-10-08 06:30:00,
2013-10-08 01:35:00,63.7,44.2,30.05,SSE,149,0.0,0.0,49,0.00,,,0.00,Wunderground v.1.15,2013-10-08 06:35:00,
2013-10-08 01:45:00,63.7,44.2,30.05,SSE,149,0.0,0.0,49,0.00,,,0.00,Wunderground v.1.15,2013-10-08 06:45:00,
2013-10-08 01:50:00,63.5,44.5,30.05,SSE,149,0.0,0.0,50,0.00,,,0.00,Wunderground v.1.15,2013-10-08 06:50:00,
2013-10-08 01:55:00,63.7,44.7,30.05,SSE,149,0.0,0.0,50,0.00,,,0.00,Wunderground v.1.15,2013-10-08 06:55:00,
2013-10-08 02:05:00,62.9,46.5,30.05,WSW,254,1.0,2.0,55,0.00,,,0.00,Wunderground v.1.15,2013-10-08 07:05:00,
2013-10-08 02:10:00,61.2,47.2,30.06,WSW,250,1.0,1.0,60,0.00,,,0.00,Wunderground v.1.15,2013-10-08 07:10:00,
2013-10-08 02:15:00,60.0,46.9,30.05,WSW,250,1.0,3.0,62,0.00,,,0.00,Wunderground v.1.15,2013-10-08 07:15:00,
2013-10-08 02:25:00,58.9,46.3,30.05,WSW,250,0.0,3.0,63,0.00,,,0.00,Wunderground v.1.15,2013-10-08 07:25:00,
2013-10-08 02:30:00,58.7,45.7,30.05,WSW,250,0.0,3.0,62,0.00,,,0.00,Wunderground v.1.15,2013-10-08 07:30:00,
2013-10-08 02:39:00,58.6,45.6,30.05,WSW,250,0.0,3.0,62,0.00,,,0.00,Wunderground v.1.15,2013-10-08 07:39:00,
2013-10-08 02:45:00,58.6,46.0,30.05,WSW,250,0.0,3.0,63,0.00,,,0.00,Wunderground v.1.15,2013-10-08 07:45:00,
2013-10-08 02:55:00,58.4,46.3,30.05,WSW,250,0.0,3.0,64,0.00,,,0.00,Wunderground v.1.15,2013-10-08 07:55:00,
2013-10-08 03:00:00,58.4,45.4,30.05,WSW,250,0.0,3.0,62,0.00,,,0.00,Wunderground v.1.15,2013-10-08 08:00:00,
2013-10-08 03:10:00,58.5,45.9,30.05,WSW,250,0.0,3.0,63,0.00,,,0.00,Wunderground v.1.15,2013-10-08 08:10:00,
2013-10-08 03:15:00,58.4,45.8,30.05,WSW,250,0.0,3.0,63,0.00,,,0.00,Wunderground v.1.15,2013-10-08 08:15:00,
2013-10-08 03:20:00,58.8,46.2,30.05,WSW,250,0.0,3.0,63,0.00,,,0.00,Wunderground v.1.15,2013-10-08 08:20:00,
2013-10-08 03:30:00,59.5,46.5,30.05,WSW,250,0.0,3.0,62,0.00,,,0.00,Wunderground v.1.15,2013-10-08 08:30:00,
2013-10-08 03:35:00,59.6,46.6,30.05,WSW,250,0.0,3.0,62,0.00,,,0.00,Wunderground v.1.15,2013-10-08 08:35:00,
2013-10-08 03:40:00,59.6,46.6,30.05,WSW,250,0.0,3.0,62,0.00,,,0.00,Wunderground v.1.15,2013-10-08 08:40:00,
2013-10-08 03:50:00,59.5,46.5,30.05,WSW,250,0.0,3.0,62,0.00,,,0.00,Wunderground v.1.15,2013-10-08 08:50:00,
2013-10-08 03:55:00,59.4,46.4,30.05,WSW,250,0.0,3.0,62,0.00,,,0.00,Wunderground v.1.15,2013-10-08 08:55:00,
2013-10-08 04:00:00,59.4,45.9,30.04,WSW,250,0.0,3.0,61,0.00,,,0.00,Wunderground v.1.15,2013-10-08 09:00:00,
2013-10-08 04:10:00,59.3,45.8,30.04,WSW,250,0.0,3.0,61,0.00,,,0.00,Wunderground v.1.15,2013-10-08 09:10:00,
2013-10-08 04:15:00,59.2,45.8,30.04,WSW,250,0.0,3.0,61,0.00,,,0.00,Wunderground v.1.15,2013-10-08 09:15:00,
2013-10-08 04:25:00,59.0,46.4,30.04,WSW,250,0.0,3.0,63,0.00,,,0.00,Wunderground v.1.15,2013-10-08 09:25:00,
2013-10-08 04:30:00,58.9,46.7,30.04,WSW,250,0.0,3.0,64,0.00,,,0.00,Wunderground v.1.15,2013-10-08 09:30:00,
2013-10-08 04:35:00,58.6,46.9,30.04,WSW,250,0.0,3.0,65,0.00,,,0.00,Wunderground v.1.15,2013-10-08 09:35:00,
2013-10-08 04:45:00,58.1,46.8,30.04,WSW,250,0.0,3.0,66,0.00,,,0.00,Wunderground v.1.15,2013-10-08 09:45:00,
2013-10-08 04:50:00,57.8,46.9,30.04,WSW,250,0.0,3.0,67,0.00,,,0.00,Wunderground v.1.15,2013-10-08 09:50:00,
2013-10-08 05:00:00,57.8,46.9,30.04,WSW,250,0.0,3.0,67,0.00,,,0.00,Wunderground v.1.15,2013-10-08 10:00:00,
2013-10-08 05:05:00,57.6,46.3,30.04,WSW,250,0.0,3.0,66,0.00,,,0.00,Wunderground v.1.15,2013-10-08 10:05:00,
2013-10-08 05:10:00,57.6,46.3,30.04,WSW,250,0.0,3.0,66,0.00,,,0.00,Wunderground v.1.15,2013-10-08 10:10:00,
2013-10-08 05:15:00,57.5,45.8,30.04,WSW,250,0.0,3.0,65,0.00,,,0.00,Wunderground v.1.15,2013-10-08 10:15:00,
2013-10-08 05:25:00,57.6,45.9,30.05,WSW,250,0.0,3.0,65,0.00,,,0.00,Wunderground v.1.15,2013-10-08 10:25:00,
2013-10-08 05:30:00,57.8,46.1,30.05,WSW,250,0.0,3.0,65,0.00,,,0.00,Wunderground v.1.15,2013-10-08 10:30:00,
2013-10-08 05:40:00,57.7,46.8,30.05,WSW,250,0.0,3.0,67,0.00,,,0.00,Wunderground v.1.15,2013-10-08 10:40:00,
2013-10-08 05:45:00,57.6,47.1,30.05,WSW,250,0.0,3.0,68,0.00,,,0.00,Wunderground v.1.15,2013-10-08 10:45:00,
2013-10-08 05:50:00,57.5,47.4,30.05,WSW,250,0.0,3.0,69,0.00,,,0.00,Wunderground v.1.15,2013-10-08 10:50:00,
2013-10-08 06:00:00,57.3,48.0,30.05,WSW,251,0.0,3.0,71,0.00,,,0.00,Wunderground v.1.15,2013-10-08 11:00:00,
2013-10-08 06:05:00,57.2,48.3,30.05,ENE,57,0.0,3.0,72,0.00,,,0.00,Wunderground v.1.15,2013-10-08 11:05:00,
2013-10-08 06:15:00,57.1,48.2,30.05,ENE,71,0.0,3.0,72,0.00,,,0.00,Wunderground v.1.15,2013-10-08 11:15:00,
2013-10-08 06:20:00,57.2,48.3,30.05,ENE,63,0.0,3.0,72,0.00,,,0.00,Wunderground v.1.15,2013-10-08 11:20:00,
2013-10-08 06:25:00,57.2,48.3,30.05,NE,55,0.0,3.0,72,0.00,,,0.00,Wunderground v.1.15,2013-10-08 11:25:00,
2013-10-08 06:30:00,56.9,48.3,30.05,ENE,65,0.0,3.0,73,0.00,,,0.00,Wunderground v.1.15,2013-10-08 11:30:00,
2013-10-08 06:40:00,56.9,48.3,30.06,ENE,58,0.0,3.0,73,0.00,,,0.00,Wunderground v.1.15,2013-10-08 11:40:00,
2013-10-08 06:45:00,57.0,48.1,30.05,ENE,58,0.0,3.0,72,0.00,,,0.00,Wunderground v.1.15,2013-10-08 11:45:00,
2013-10-08 06:55:00,57.2,47.9,30.06,ENE,57,0.0,3.0,71,0.00,,,0.00,Wunderground v.1.15,2013-10-08 11:55:00,
2013-10-08 07:00:00,57.3,48.0,30.05,ENE,57,0.0,3.0,71,0.00,,,0.00,Wunderground v.1.15,2013-10-08 12:00:00,
2013-10-08 07:05:00,57.3,47.6,30.06,NE,53,0.0,3.0,70,0.00,,,0.00,Wunderground v.1.15,2013-10-08 12:05:00,
2013-10-08 07:15:00,57.3,47.6,30.06,NE,53,0.0,3.0,70,0.00,,,0.00,Wunderground v.1.15,2013-10-08 12:15:00,
2013-10-08 07:20:00,57.3,47.2,30.05,NE,53,0.0,3.0,69,0.00,,,0.00,Wunderground v.1.15,2013-10-08 12:20:00,
2013-10-08 07:30:00,57.2,47.5,30.06,NE,53,0.0,3.0,70,0.00,,,0.00,Wunderground v.1.15,2013-10-08 12:30:00,
2013-10-08 07:35:00,57.3,47.6,30.06,NE,53,0.0,3.0,70,0.00,,,0.00,Wunderground v.1.15,2013-10-08 12:35:00,
2013-10-08 07:40:00,57.4,47.3,30.06,NE,53,0.0,3.0,69,0.00,,,0.00,Wunderground v.1.15,2013-10-08 12:40:00,
2013-10-08 07:45:00,57.6,47.1,30.06,NE,53,0.0,3.0,68,0.00,,,0.00,Wunderground v.1.15,2013-10-08 12:45:00,
2013-10-08 07:55:00,58.1,47.6,30.07,WSW,256,0.0,3.0,68,0.00,,,0.00,Wunderground v.1.15,2013-10-08 12:55:00,
2013-10-08 08:00:00,57.6,48.3,30.07,WSW,256,0.0,3.0,71,0.00,,,0.00,Wunderground v.1.15,2013-10-08 13:00:00,
2013-10-08 08:10:00,56.5,48.3,30.07,WSW,256,0.0,3.0,74,0.00,,,0.00,Wunderground v.1.15,2013-10-08 13:10:00,
2013-10-08 08:15:00,56.4,48.2,30.07,WSW,256,0.0,3.0,74,0.00,,,0.00,Wunderground v.1.15,2013-10-08 13:15:00,
2013-10-08 08:20:00,56.4,48.9,30.07,WSW,256,0.0,3.0,76,0.00,,,0.00,Wunderground v.1.15,2013-10-08 13:20:00,
2013-10-08 08:30:00,57.5,49.6,30.08,North,349,0.0,3.0,75,0.00,,,0.00,Wunderground v.1.15,2013-10-08 13:30:00,
2013-10-08 08:35:00,58.2,50.0,30.08,NNE,16,0.0,3.0,74,0.00,,,0.00,Wunderground v.1.15,2013-10-08 13:35:00,
2013-10-08 08:45:00,59.6,51.3,30.08,NNE,16,0.0,3.0,74,0.00,,,0.00,Wunderground v.1.15,2013-10-08 13:45:00,
2013-10-08 08:50:00,60.2,49.6,30.08,NNE,16,0.0,3.0,68,0.00,,,0.00,Wunderground v.1.15,2013-10-08 13:50:00,
2013-10-08 08:55:00,61.0,50.8,30.08,NNE,16,0.0,3.0,69,0.00,,,0.00,Wunderground v.1.15,2013-10-08 13:55:00,
2013-10-08 09:05:00,62.9,51.4,30.08,NNE,16,0.0,3.0,66,0.00,,,0.00,Wunderground v.1.15,2013-10-08 14:05:00,
2013-10-08 09:10:00,63.6,50.3,30.08,NNE,16,0.0,3.0,62,0.00,,,0.00,Wunderground v.1.15,2013-10-08 14:10:00,
2013-10-08 09:15:00,64.3,51.9,30.08,NNE,16,0.0,3.0,64,0.00,,,0.00,Wunderground v.1.15,2013-10-08 14:15:00,
2013-10-08 09:25:00,65.7,51.4,30.08,NNE,16,0.0,3.0,60,0.00,,,0.00,Wunderground v.1.15,2013-10-08 14:25:00,
2013-10-08 09:30:00,66.3,51.5,30.08,North,355,0.0,3.0,59,0.00,,,0.00,Wunderground v.1.15,2013-10-08 14:30:00,
2013-10-08 09:35:00,67.0,51.3,30.08,NNW,340,0.0,3.0,57,0.00,,,0.00,Wunderground v.1.15,2013-10-08 14:35:00,
2013-10-08 09:45:00,68.3,49.5,30.08,NNW,337,1.0,3.0,51,0.00,,,0.00,Wunderground v.1.15,2013-10-08 14:45:00,
2013-10-08 09:50:00,68.9,49.5,30.08,NNW,331,1.0,1.0,50,0.00,,,0.00,Wunderground v.1.15,2013-10-08 14:50:00,
2013-10-08 10:00:00,69.9,50.9,30.08,NW,326,0.0,3.0,51,0.00,,,0.00,Wunderground v.1.15,2013-10-08 15:00:00,
2013-10-08 10:05:00,70.3,50.2,30.08,NW,320,1.0,3.0,49,0.00,,,0.00,Wunderground v.1.15,2013-10-08 15:05:00,
2013-10-08 10:10:00,70.7,51.1,30.08,WNW,292,1.0,1.0,50,0.00,,,0.00,Wunderground v.1.15,2013-10-08 15:10:00,
2013-10-08 10:20:00,71.2,50.5,30.08,WSW,254,1.0,3.0,48,0.00,,,0.00,Wunderground v.1.15,2013-10-08 15:20:00,
2013-10-08 10:25:00,71.5,49.0,30.08,WSW,243,1.0,3.0,45,0.00,,,0.00,Wunderground v.1.15,2013-10-08 15:25:00,
2013-10-08 10:35:00,72.3,49.2,30.08,WSW,244,0.0,3.0,44,0.00,,,0.00,Wunderground v.1.15,2013-10-08 15:35:00,
2013-10-08 10:40:00,72.8,49.0,30.08,NW,322,0.0,3.0,43,0.00,,,0.00,Wunderground v.1.15,2013-10-08 15:40:00,
2013-10-08 10:45:00,73.2,47.4,30.08,NW,306,0.0,3.0,40,0.00,,,0.00,Wunderground v.1.15,2013-10-08 15:45:00,
2013-10-08 10:55:00,74.0,49.4,30.08,NE,52,0.0,3.0,42,0.00,,,0.00,Wunderground v.1.15,2013-10-08 15:55:00,
2013-10-08 11:00:00,74.4,48.5,30.08,North,11,0.0,3.0,40,0.00,,,0.00,Wunderground v.1.15,2013-10-08 16:00:00,
2013-10-08 11:10:00,74.9,48.3,30.08,ENE,77,1.0,1.0,39,0.00,,,0.00,Wunderground v.1.15,2013-10-08 16:10:00,
2013-10-08 11:15:00,75.2,47.8,30.08,ENE,77,0.0,3.0,38,0.00,,,0.00,Wunderground v.1.15,2013-10-08 16:15:00,
2013-10-08 11:20:00,75.7,48.3,30.08,NNE,26,1.0,1.0,38,0.00,,,0.00,Wunderground v.1.15,2013-10-08 16:20:00,
2013-10-08 11:30:00,75.9,48.5,30.08,NE,39,1.0,1.0,38,0.00,,,0.00,Wunderground v.1.15,2013-10-08 16:30:00,
2013-10-08 11:35:00,76.6,50.5,30.08,NE,50,0.0,3.0,40,0.00,,,0.00,Wunderground v.1.15,2013-10-08 16:35:00,
2013-10-08 11:40:00,76.9,49.4,30.07,West,265,0.0,3.0,38,0.00,,,0.00,Wunderground v.1.15,2013-10-08 16:40:00,
2013-10-08 11:50:00,77.0,47.2,30.07,North,360,2.0,3.0,35,0.00,,,0.00,Wunderground v.1.15,2013-10-08 16:50:00,
2013-10-08 11:55:00,77.1,46.6,30.07,NNW,343,1.0,3.0,34,0.00,,,0.00,Wunderground v.1.15,2013-10-08 16:55:00,
2013-10-08 12:05:00,78.4,48.5,30.06,SSE,150,0.0,3.0,35,0.00,,,0.00,Wunderground v.1.15,2013-10-08 17:05:00,
2013-10-08 12:10:00,79.1,47.5,30.06,WSW,252,0.0,3.0,33,0.00,,,0.00,Wunderground v.1.15,2013-10-08 17:10:00,
2013-10-08 12:15:00,78.9,45.7,30.06,WSW,256,1.0,3.0,31,0.00,,,0.00,Wunderground v.1.15,2013-10-08 17:15:00,
2013-10-08 12:25:00,78.7,48.0,30.06,WSW,257,1.0,3.0,34,0.00,,,0.00,Wunderground v.1.15,2013-10-08 17:25:00,
2013-10-08 12:30:00,79.0,47.4,30.06,SW,232,1.0,3.0,33,0.00,,,0.00,Wunderground v.1.15,2013-10-08 17:30:00,
2013-10-08 12:40:00,79.3,47.7,30.05,West,262,1.0,3.0,33,0.00,,,0.00,Wunderground v.1.15,2013-10-08 17:40:00,
2013-10-08 12:45:00,79.5,46.2,30.05,West,281,1.0,3.0,31,0.00,,,0.00,Wunderground v.1.15,2013-10-08 17:45:00,
2013-10-08 12:50:00,79.6,44.5,30.05,ENE,69,1.0,3.0,29,0.00,,,0.00,Wunderground v.1.15,2013-10-08 17:50:00,
2013-10-08 12:55:00,79.5,47.1,30.05,WNW,300,1.0,3.0,32,0.00,,,0.00,Wunderground v.1.15,2013-10-08 17:55:00,
2013-10-08 13:05:00,80.1,45.9,30.05,WNW,296,1.0,3.0,30,0.00,,,0.00,Wunderground v.1.15,2013-10-08 18:05:00,
2013-10-08 13:10:00,80.5,47.1,30.05,WSW,257,1.0,1.0,31,0.00,,,0.00,Wunderground v.1.15,2013-10-08 18:10:00,
2013-10-08 13:20:00,80.8,45.6,30.04,West,272,1.0,3.0,29,0.00,,,0.00,Wunderground v.1.15,2013-10-08 18:20:00,
2013-10-08 13:25:00,80.8,47.3,30.04,West,263,1.0,3.0,31,0.00,,,0.00,Wunderground v.1.15,2013-10-08 18:25:00,
2013-10-08 13:30:00,80.9,45.7,30.04,West,276,1.0,5.0,29,0.00,,,0.00,Wunderground v.1.15,2013-10-08 18:30:00,
2013-10-08 13:40:00,80.5,47.1,30.03,NW,315,2.0,2.0,31,0.00,,,0.00,Wunderground v.1.15,2013-10-08 18:40:00,
2013-10-08 13:45:00,81.1,45.8,30.03,West,267,1.0,3.0,29,0.00,,,0.00,Wunderground v.1.15,2013-10-08 18:45:00,
2013-10-08 13:55:00,81.3,45.1,30.02,WNW,292,2.0,3.0,28,0.00,,,0.00,Wunderground v.1.15,2013-10-08 18:55:00,
2013-10-08 14:00:00,81.2,45.0,30.02,West,279,2.0,3.0,28,0.00,,,0.00,Wunderground v.1.15,2013-10-08 19:00:00,
2013-10-08 14:05:00,81.4,46.1,30.02,WNW,294,2.0,3.0,29,0.00,,,0.00,Wunderground v.1.15,2013-10-08 19:05:00,
2013-10-08 14:15:00,81.5,47.1,30.01,NW,312,2.0,3.0,30,0.00,,,0.00,Wunderground v.1.15,2013-10-08 19:15:00,
2013-10-08 14:20:00,81.4,45.2,30.01,WNW,302,2.0,2.0,28,0.00,,,0.00,Wunderground v.1.15,2013-10-08 19:20:00,
2013-10-08 14:25:00,81.6,46.3,30.01,SE,130,2.0,3.0,29,0.00,,,0.00,Wunderground v.1.15,2013-10-08 19:25:00,
2013-10-08 14:35:00,81.8,46.4,30.00,NNE,26,1.0,3.0,29,0.00,,,0.00,Wunderground v.1.15,2013-10-08 19:35:00,
2013-10-08 14:40:00,82.3,45.0,30.00,South,190,0.0,3.0,27,0.00,,,0.00,Wunderground v.1.15,2013-10-08 19:40:00,
2013-10-08 14:45:00,82.5,45.1,30.00,ENE,69,1.0,3.0,27,0.00,,,0.00,Wunderground v.1.15,2013-10-08 19:45:00,
2013-10-08 14:55:00,82.8,46.4,30.00,SSW,194,2.0,3.0,28,0.00,,,0.00,Wunderground v.1.15,2013-10-08 19:55:00,
2013-10-08 15:00:00,83.5,47.0,29.99,West,272,1.0,3.0,28,0.00,,,0.00,Wunderground v.1.15,2013-10-08 20:00:00,
2013-10-08 15:05:00,83.9,45.3,29.99,NNE,32,0.0,3.0,26,0.00,,,0.00,Wunderground v.1.15,2013-10-08 20:05:00,
2013-10-08 15:15:00,83.9,45.3,29.99,SSE,155,1.0,3.0,26,0.00,,,0.00,Wunderground v.1.15,2013-10-08 20:15:00,
2013-10-08 15:20:00,83.7,47.1,29.99,WNW,298,1.0,1.0,28,0.00,,,0.00,Wunderground v.1.15,2013-10-08 20:20:00,
2013-10-08 15:25:00,84.0,46.4,29.99,SE,138,1.0,2.0,27,0.00,,,0.00,Wunderground v.1.15,2013-10-08 20:25:00,
2013-10-08 15:35:00,83.5,47.0,29.98,ESE,116,2.0,3.0,28,0.00,,,0.00,Wunderground v.1.15,2013-10-08 20:35:00,
2013-10-08 15:40:00,83.6,46.1,29.98,SE,126,1.0,5.0,27,0.00,,,0.00,Wunderground v.1.15,2013-10-08 20:40:00,
2013-10-08 15:50:00,82.9,47.4,29.98,SE,126,2.0,3.0,29,0.00,,,0.00,Wunderground v.1.15,2013-10-08 20:50:00,
2013-10-08 15:55:00,83.3,46.8,29.98,ESE,120,2.0,3.0,28,0.00,,,0.00,Wunderground v.1.15,2013-10-08 20:55:00,
2013-10-08 16:00:00,83.3,46.8,29.98,East,88,2.0,3.0,28,0.00,,,0.00,Wunderground v.1.15,2013-10-08 21:00:00,
2013-10-08 16:10:00,83.4,48.7,29.98,SSE,168,2.0,2.0,30,0.00,,,0.00,Wunderground v.1.15,2013-10-08 21:10:00,
2013-10-08 16:15:00,83.5,46.0,29.98,ESE,123,1.0,3.0,27,0.00,,,0.00,Wunderground v.1.15,2013-10-08 21:15:00,
2013-10-08 16:25:00,83.3,44.8,29.97,SE,139,1.0,2.0,26,0.00,,,0.00,Wunderground v.1.15,2013-10-08 21:25:00,
2013-10-08 16:30:00,83.4,46.9,29.97,ESE,111,1.0,3.0,28,0.00,,,0.00,Wunderground v.1.15,2013-10-08 21:30:00,
2013-10-08 16:35:00,83.4,49.6,29.97,SE,129,1.0,3.0,31,0.00,,,0.00,Wunderground v.1.15,2013-10-08 21:35:00,
2013-10-08 16:45:00,84.6,46.9,29.97,ENE,74,0.0,3.0,27,0.00,,,0.00,Wunderground v.1.15,2013-10-08 21:45:00,
2013-10-08 16:50:00,84.3,48.6,29.97,SE,135,1.0,1.0,29,0.00,,,0.00,Wunderground v.1.15,2013-10-08 21:50:00,
2013-10-08 16:55:00,84.4,47.7,29.97,SE,135,1.0,3.0,28,0.00,,,0.00,Wunderground v.1.15,2013-10-08 21:55:00,
2013-10-08 17:05:00,85.2,48.4,29.97,WSW,237,0.0,3.0,28,0.00,,,0.00,Wunderground v.1.15,2013-10-08 22:05:00,
2013-10-08 17:10:00,84.8,48.1,29.97,ESE,120,1.0,3.0,28,0.00,,,0.00,Wunderground v.1.15,2013-10-08 22:10:00,
2013-10-08 17:15:00,84.1,46.5,29.97,SE,130,2.0,3.0,27,0.00,,,0.00,Wunderground v.1.15,2013-10-08 22:15:00,
2013-10-08 17:25:00,83.8,46.2,29.97,South,172,1.0,3.0,27,0.00,,,0.00,Wunderground v.1.15,2013-10-08 22:25:00,
2013-10-08 17:30:00,83.4,45.9,29.97,ESE,110,1.0,3.0,27,0.00,,,0.00,Wunderground v.1.15,2013-10-08 22:30:00,
2013-10-08 17:40:00,83.5,47.9,29.96,ESE,110,0.0,3.0,29,0.00,,,0.00,Wunderground v.1.15,2013-10-08 22:40:00,
2013-10-08 17:45:00,83.4,47.8,29.97,SE,142,1.0,3.0,29,0.00,,,0.00,Wunderground v.1.15,2013-10-08 22:45:00,
2013-10-08 17:50:00,83.0,48.4,29.97,ESE,117,1.0,3.0,30,0.00,,,0.00,Wunderground v.1.15,2013-10-08 22:50:00,
2013-10-08 18:00:00,82.3,46.9,29.97,SE,137,1.0,3.0,29,0.00,,,0.00,Wunderground v.1.15,2013-10-08 23:00:00,
2013-10-08 18:05:00,81.9,48.3,29.97,SE,142,1.0,3.0,31,0.00,,,0.00,Wunderground v.1.15,2013-10-08 23:05:00,
2013-10-08 18:15:00,81.3,47.8,29.97,SE,139,1.0,2.0,31,0.00,,,0.00,Wunderground v.1.15,2013-10-08 23:15:00,
2013-10-08 18:20:00,81.0,48.4,29.97,SE,128,1.0,3.0,32,0.00,,,0.00,Wunderground v.1.15,2013-10-08 23:20:00,
2013-10-08 18:30:00,80.4,47.8,29.97,SE,128,0.0,3.0,32,0.00,,,0.00,Wunderground v.1.15,2013-10-08 23:30:00,
2013-10-08 18:35:00,80.0,48.3,29.97,SE,128,0.0,3.0,33,0.00,,,0.00,Wunderground v.1.15,2013-10-08 23:35:00,
2013-10-08 18:40:00,79.5,49.4,29.97,SE,128,0.0,3.0,35,0.00,,,0.00,Wunderground v.1.15,2013-10-08 23:40:00,
2013-10-08 18:50:00,78.4,49.2,29.97,SE,128,0.0,3.0,36,0.00,,,0.00,Wunderground v.1.15,2013-10-08 23:50:00,
2013-10-08 18:55:00,77.8,48.7,29.97,SE,128,0.0,3.0,36,0.00,,,0.00,Wunderground v.1.15,2013-10-08 23:55:00,
2013-10-08 19:00:00,77.2,48.9,29.97,SE,128,0.0,3.0,37,0.00,,,0.00,Wunderground v.1.15,2013-10-09 00:00:00,
2013-10-08 19:10:00,76.0,49.2,29.97,SE,133,0.0,3.0,39,0.00,,,0.00,Wunderground v.1.15,2013-10-09 00:10:00,
2013-10-08 19:15:00,75.4,50.1,29.97,SE,133,0.0,3.0,41,0.00,,,0.00,Wunderground v.1.15,2013-10-09 00:15:00,
2013-10-08 19:25:00,74.6,49.3,29.98,SE,133,0.0,3.0,41,0.00,,,0.00,Wunderground v.1.15,2013-10-09 00:25:00,
2013-10-08 19:30:00,74.4,49.8,29.98,SE,135,0.0,3.0,42,0.00,,,0.00,Wunderground v.1.15,2013-10-09 00:30:00,
2013-10-08 19:40:00,73.7,49.8,29.97,SE,134,0.0,3.0,43,0.00,,,0.00,Wunderground v.1.15,2013-10-09 00:40:00,
2013-10-08 19:45:00,73.4,49.5,29.97,SE,134,0.0,3.0,43,0.00,,,0.00,Wunderground v.1.15,2013-10-09 00:45:00,
2013-10-08 19:50:00,73.1,49.9,29.98,SE,134,0.0,3.0,44,0.00,,,0.00,Wunderground v.1.15,2013-10-09 00:50:00,
2013-10-08 20:00:00,72.3,49.8,29.98,SE,134,0.0,3.0,45,0.00,,,0.00,Wunderground v.1.15,2013-10-09 01:00:00,
2013-10-08 20:05:00,72.0,49.5,29.98,SE,134,0.0,3.0,45,0.00,,,0.00,Wunderground v.1.15,2013-10-09 01:05:00,
2013-10-08 20:15:00,71.5,49.6,29.98,SE,134,0.0,3.0,46,0.00,,,0.00,Wunderground v.1.15,2013-10-09 01:15:00,
2013-10-08 20:20:00,71.3,50.0,29.98,SE,134,0.0,3.0,47,0.00,,,0.00,Wunderground v.1.15,2013-10-09 01:20:00,
2013-10-08 20:25:00,71.1,49.3,29.98,SE,134,1.0,3.0,46,0.00,,,0.00,Wunderground v.1.15,2013-10-09 01:25:00,
2013-10-08 20:35:00,70.7,49.5,29.98,SE,134,0.0,3.0,47,0.00,,,0.00,Wunderground v.1.15,2013-10-09 01:35:00,
2013-10-08 20:40:00,70.4,49.2,29.98,SE,124,0.0,3.0,47,0.00,,,0.00,Wunderground v.1.15,2013-10-09 01:40:00,
2013-10-08 20:50:00,69.9,49.3,29.98,SE,124,0.0,3.0,48,0.00,,,0.00,Wunderground v.1.15,2013-10-09 01:50:00,
2013-10-08 20:55:00,69.7,48.6,29.98,SE,124,0.0,3.0,47,0.00,,,0.00,Wunderground v.1.15,2013-10-09 01:55:00,
2013-10-08 21:00:00,69.7,49.1,29.98,SE,124,0.0,3.0,48,0.00,,,0.00,Wunderground v.1.15,2013-10-09 02:00:00,
2013-10-08 21:10:00,69.8,48.7,29.98,South,176,1.0,3.0,47,0.00,,,0.00,Wunderground v.1.15,2013-10-09 02:10:00,
2013-10-08 21:15:00,69.7,48.6,29.98,SSE,167,1.0,3.0,47,0.00,,,0.00,Wunderground v.1.15,2013-10-09 02:15:00,
2013-10-08 21:25:00,69.7,48.0,29.98,SSE,167,1.0,2.0,46,0.00,,,0.00,Wunderground v.1.15,2013-10-09 02:25:00,
2013-10-08 21:30:00,69.6,47.9,29.98,SSE,167,1.0,1.0,46,0.00,,,0.00,Wunderground v.1.15,2013-10-09 02:30:00,
2013-10-08 21:35:00,69.6,47.9,29.98,SSE,167,1.0,3.0,46,0.00,,,0.00,Wunderground v.1.15,2013-10-09 02:35:00,
2013-10-08 21:45:00,69.3,47.6,29.99,SSE,167,1.0,3.0,46,0.00,,,0.00,Wunderground v.1.15,2013-10-09 02:45:00,
2013-10-08 21:50:00,69.2,47.5,29.99,SSE,166,1.0,1.0,46,0.00,,,0.00,Wunderground v.1.15,2013-10-09 02:50:00,
2013-10-08 21:55:00,69.1,48.0,29.99,SSE,166,1.0,3.0,47,0.00,,,0.00,Wunderground v.1.15,2013-10-09 02:55:00,
2013-10-08 22:05:00,68.7,47.6,29.99,SSE,166,1.0,3.0,47,0.00,,,0.00,Wunderground v.1.15,2013-10-09 03:05:00,
2013-10-08 22:10:00,68.6,47.0,29.99,SSE,164,0.0,3.0,46,0.00,,,0.00,Wunderground v.1.15,2013-10-09 03:10:00,
2013-10-08 22:15:00,68.4,47.4,29.99,SSE,164,0.0,3.0,47,0.00,,,0.00,Wunderground v.1.15,2013-10-09 03:15:00,
2013-10-08 22:25:00,68.1,47.1,29.99,SSE,163,1.0,3.0,47,0.00,,,0.00,Wunderground v.1.15,2013-10-09 03:25:00,
2013-10-08 22:30:00,68.0,47.0,29.99,SSE,165,1.0,1.0,47,0.00,,,0.00,Wunderground v.1.15,2013-10-09 03:30:00,
2013-10-08 22:40:00,67.9,46.9,29.99,SSE,165,0.0,3.0,47,0.00,,,0.00,Wunderground v.1.15,2013-10-09 03:40:00,
2013-10-08 22:45:00,67.8,46.8,29.99,SSE,165,1.0,3.0,47,0.00,,,0.00,Wunderground v.1.15,2013-10-09 03:45:00,
2013-10-08 22:50:00,67.8,46.8,29.99,SSE,165,1.0,1.0,47,0.00,,,0.00,Wunderground v.1.15,2013-10-09 03:50:00,
2013-10-08 23:00:00,67.4,47.6,29.99,SSE,161,0.0,3.0,49,0.00,,,0.00,Wunderground v.1.15,2013-10-09 04:00:00,
2013-10-08 23:05:00,67.2,47.4,30.00,SSE,161,1.0,3.0,49,0.00,,,0.00,Wunderground v.1.15,2013-10-09 04:05:00,
2013-10-08 23:10:00,66.9,47.6,30.00,SE,143,1.0,3.0,50,0.00,,,0.00,Wunderground v.1.15,2013-10-09 04:10:00,
2013-10-08 23:15:00,66.2,47.5,30.00,SE,133,2.0,3.0,51,0.00,,,0.00,Wunderground v.1.15,2013-10-09 04:15:00,
2013-10-08 23:20:00,65.3,47.2,30.00,SE,124,2.0,2.0,52,0.00,,,0.00,Wunderground v.1.15,2013-10-09 04:20:00,
2013-10-08 23:25:00,64.8,47.3,30.00,SE,135,1.0,3.0,53,0.00,,,0.00,Wunderground v.1.15,2013-10-09 04:25:00,
2013-10-08 23:35:00,64.7,46.7,29.99,SE,146,1.0,3.0,52,0.00,,,0.00,Wunderground v.1.15,2013-10-09 04:35:00,
2013-10-08 23:40:00,64.8,47.8,29.99,SE,130,1.0,3.0,54,0.00,,,0.00,Wunderground v.1.15,2013-10-09 04:40:00,
2013-10-08 23:45:00,65.0,47.9,29.99,SSE,148,1.0,3.0,54,0.00,,,0.00,Wunderground v.1.15,2013-10-09 04:45:00,
2013-10-08 23:55:00,64.7,48.2,29.99,SE,133,1.0,3.0,55,0.00,,,0.00,Wunderground v.1.15,2013-10-09 04:55:00,